Time;durP1;ratioP1;P1;durP2;ratioP2;P2;SDS_P1;SDS_P2;PMS_P1;PMS_P2;Temp;Humidity;BMP_temperature;BMP_pressure;BME280_temperature;BME280_humidity;BME280_pressure;Samples;Min_cycle;Max_cycle;Signal;HPM_P1;HPM_P2
2022/03/17 00:01:50;;;;;;;21.92;12.60;;;5.40;99.90;;;;;;5069150;28;20049;-54
2022/03/17 00:04:16;;;;;;;25.98;14.05;;;5.40;99.90;;;;;;5070726;28;20029;-51
2022/03/17 00:06:41;;;;;;;24.02;14.45;;;5.40;99.90;;;;;;5069323;28;20031;-48
2022/03/17 00:09:08;;;;;;;24.60;14.38;;;5.40;99.90;;;;;;5069388;28;20043;-54
2022/03/17 00:11:35;;;;;;;21.17;15.15;;;5.40;99.90;;;;;;5068840;28;20396;-48
2022/03/17 00:14:01;;;;;;;22.58;13.07;;;5.40;99.90;;;;;;5068708;28;20029;-51
2022/03/17 00:16:28;;;;;;;22.15;14.80;;;5.40;99.90;;;;;;5068411;28;20039;-49
2022/03/17 00:18:55;;;;;;;27.77;15.93;;;5.40;99.90;;;;;;5069156;28;20028;-49
2022/03/17 00:21:21;;;;;;;26.85;15.52;;;5.40;99.90;;;;;;5068999;28;20401;-55
2022/03/17 00:23:47;;;;;;;29.95;15.75;;;5.40;99.90;;;;;;5067798;28;20032;-48
2022/03/17 00:26:12;;;;;;;24.20;14.50;;;5.30;99.90;;;;;;5068832;28;20036;-49
2022/03/17 00:28:39;;;;;;;25.70;15.73;;;5.30;99.90;;;;;;5069003;28;20036;-49
2022/03/17 00:31:04;;;;;;;30.23;17.45;;;5.30;99.90;;;;;;5069173;28;20032;-55
2022/03/17 00:33:30;;;;;;;30.33;17.85;;;5.30;99.90;;;;;;5069689;28;20036;-48
2022/03/17 00:35:55;;;;;;;28.95;17.33;;;5.30;99.90;;;;;;5072583;28;20048;-48
2022/03/17 00:38:21;;;;;;;31.67;17.42;;;5.40;99.90;;;;;;5073378;28;20028;-52
2022/03/17 00:40:47;;;;;;;30.42;17.00;;;5.40;99.90;;;;;;5072591;28;20342;-49
2022/03/17 00:43:15;;;;;;;31.15;17.65;;;5.30;99.90;;;;;;5072400;28;20021;-51
2022/03/17 00:45:43;;;;;;;32.10;18.38;;;5.30;99.90;;;;;;5054480;28;20044;-50
2022/03/17 00:48:09;;;;;;;34.40;20.38;;;5.30;99.90;;;;;;5072911;28;20028;-51
2022/03/17 00:50:35;;;;;;;35.22;18.98;;;5.40;99.90;;;;;;5072781;28;20039;-52
2022/03/17 00:53:02;;;;;;;31.08;20.30;;;5.30;99.90;;;;;;5072416;28;20064;-49
2022/03/17 00:55:27;;;;;;;33.05;20.20;;;5.40;99.90;;;;;;5072752;28;20083;-49
2022/03/17 00:57:53;;;;;;;36.88;20.10;;;5.40;99.90;;;;;;5072887;28;20037;-48
2022/03/17 01:00:21;;;;;;;36.30;20.90;;;5.40;99.90;;;;;;5072512;28;20040;-48
2022/03/17 01:02:53;;;;;;;36.65;19.50;;;5.30;99.90;;;;;;5072370;28;20029;-53
2022/03/17 01:05:19;;;;;;;38.17;22.00;;;5.30;99.90;;;;;;5072862;28;20029;-49
2022/03/17 01:07:45;;;;;;;36.05;20.27;;;5.30;99.90;;;;;;5072627;28;20043;-54
2022/03/17 01:10:17;;;;;;;34.92;20.48;;;5.30;99.90;;;;;;5072713;28;20043;-49
2022/03/17 01:12:47;;;;;;;33.08;20.02;;;5.30;99.90;;;;;;5072264;28;20621;-49
2022/03/17 01:15:14;;;;;;;36.20;21.27;;;5.30;99.90;;;;;;5072369;28;20036;-50
2022/03/17 01:17:40;;;;;;;33.95;20.48;;;5.30;99.90;;;;;;5072410;28;20059;-49
2022/03/17 01:20:06;;;;;;;34.80;20.83;;;5.30;99.90;;;;;;5072131;28;20555;-49
2022/03/17 01:22:33;;;;;;;41.95;22.38;;;5.20;99.90;;;;;;5071901;28;20029;-53
2022/03/17 01:24:58;;;;;;;36.20;20.63;;;5.30;99.90;;;;;;5072344;28;20028;-50
2022/03/17 01:27:25;;;;;;;40.10;22.63;;;5.30;99.90;;;;;;5071773;28;20048;-50
2022/03/17 01:29:52;;;;;;;38.25;22.02;;;5.20;99.90;;;;;;5072257;28;20036;-50
2022/03/17 01:32:19;;;;;;;36.47;23.10;;;5.30;99.90;;;;;;5071542;28;20036;-48
2022/03/17 01:34:45;;;;;;;37.83;21.00;;;5.20;99.90;;;;;;5072204;28;20507;-48
2022/03/17 01:37:10;;;;;;;37.13;22.65;;;5.20;99.90;;;;;;5072282;28;20028;-47
2022/03/17 01:39:37;;;;;;;42.38;22.33;;;5.20;99.90;;;;;;5072045;28;20029;-49
2022/03/17 01:42:06;;;;;;;39.33;24.13;;;5.20;99.90;;;;;;5071272;28;20016;-49
2022/03/17 01:44:33;;;;;;;34.78;22.95;;;5.20;99.90;;;;;;5054047;28;20059;-54
2022/03/17 01:49:43;;;;;;;38.88;23.23;;;5.30;99.90;;;;;;5071986;28;20086;-51
2022/03/17 01:52:09;;;;;;;38.45;23.70;;;5.30;99.90;;;;;;5071835;28;20032;-51
2022/03/17 01:54:36;;;;;;;36.67;23.70;;;5.30;99.90;;;;;;5036865;28;20035;-50
2022/03/17 01:57:04;;;;;;;39.97;23.75;;;5.30;99.90;;;;;;5067363;28;20024;-52
2022/03/17 01:59:31;;;;;;;39.40;23.95;;;5.20;99.90;;;;;;5068788;28;20136;-53
2022/03/17 02:01:58;;;;;;;39.25;21.65;;;5.30;99.90;;;;;;5069190;28;20563;-51
2022/03/17 02:04:24;;;;;;;38.17;22.95;;;5.20;99.90;;;;;;5069684;28;20029;-49
2022/03/17 02:06:50;;;;;;;39.67;22.50;;;5.30;99.90;;;;;;5073122;28;20525;-53
2022/03/17 02:09:20;;;;;;;38.97;23.63;;;5.30;99.90;;;;;;5073060;28;20400;-50
2022/03/17 02:14:34;;;;;;;39.97;24.13;;;5.30;99.90;;;;;;5071392;28;20043;-50
2022/03/17 02:17:00;;;;;;;38.67;23.60;;;5.30;99.90;;;;;;5071159;28;20036;-49
2022/03/17 02:19:26;;;;;;;41.50;24.10;;;5.30;99.90;;;;;;5053252;28;20033;-49
2022/03/17 02:21:52;;;;;;;42.75;23.98;;;5.30;99.90;;;;;;5070805;28;20082;-50
2022/03/17 02:27:03;;;;;;;37.58;24.27;;;5.30;99.90;;;;;;5071622;28;20155;-52
2022/03/17 02:29:30;;;;;;;36.42;23.75;;;5.30;99.90;;;;;;5071287;28;20500;-50
2022/03/17 02:31:56;;;;;;;42.08;24.77;;;5.30;99.90;;;;;;5070622;28;20043;-49
2022/03/17 02:34:22;;;;;;;41.85;26.30;;;5.30;99.90;;;;;;5070871;28;20404;-51
2022/03/17 02:36:50;;;;;;;38.83;23.95;;;5.30;99.90;;;;;;5070770;28;20029;-50
2022/03/17 02:39:19;;;;;;;43.30;24.77;;;5.30;99.90;;;;;;5070945;28;20062;-51
2022/03/17 02:41:44;;;;;;;41.55;25.35;;;5.30;99.90;;;;;;5070774;28;20021;-50
2022/03/17 02:44:11;;;;;;;44.47;26.77;;;5.30;99.90;;;;;;5052779;28;20091;-51
2022/03/17 02:46:37;;;;;;;40.10;24.15;;;5.40;99.90;;;;;;5070513;28;20506;-50
2022/03/17 02:49:03;;;;;;;45.28;26.52;;;5.30;99.90;;;;;;5067010;28;20024;-51
2022/03/17 02:51:29;;;;;;;42.88;24.55;;;5.40;99.90;;;;;;5069779;28;20025;-53
2022/03/17 02:53:54;;;;;;;38.40;24.88;;;5.40;99.90;;;;;;5070100;28;20458;-50
2022/03/17 02:56:20;;;;;;;45.95;27.90;;;5.30;99.90;;;;;;5069978;28;20062;-47
2022/03/17 02:58:46;;;;;;;42.33;25.70;;;5.30;99.90;;;;;;5070175;28;20028;-51
2022/03/17 03:01:11;;;;;;;43.60;25.88;;;5.40;99.90;;;;;;5070221;28;20107;-50
2022/03/17 03:03:37;;;;;;;44.85;26.30;;;5.40;99.90;;;;;;5070373;28;20397;-49
2022/03/17 03:06:02;;;;;;;37.88;24.45;;;5.40;99.90;;;;;;5070863;28;20036;-53
2022/03/17 03:08:29;;;;;;;47.40;27.27;;;5.40;99.90;;;;;;5070337;28;20024;-49
2022/03/17 03:10:56;;;;;;;39.38;25.75;;;5.40;99.90;;;;;;5070146;28;20522;-51
2022/03/17 03:13:22;;;;;;;43.92;27.42;;;5.40;99.90;;;;;;5069774;28;20027;-51
2022/03/17 03:15:50;;;;;;;44.75;27.83;;;5.40;99.90;;;;;;5070028;28;20029;-50
2022/03/17 03:18:16;;;;;;;39.90;27.35;;;5.40;99.90;;;;;;5069944;28;20037;-49
2022/03/17 03:20:42;;;;;;;46.20;24.98;;;5.40;99.90;;;;;;5070051;28;20028;-48
2022/03/17 03:23:08;;;;;;;46.25;27.10;;;5.40;99.90;;;;;;5069162;28;20032;-52
2022/03/17 03:25:34;;;;;;;43.72;26.90;;;5.40;99.90;;;;;;5069984;28;20108;-52
2022/03/17 03:28:08;;;;;;;40.78;27.92;;;5.40;99.90;;;;;;5069705;28;20036;-50
2022/03/17 03:30:33;;;;;;;41.97;26.83;;;5.40;99.90;;;;;;5051885;28;20079;-49
2022/03/17 03:32:59;;;;;;;43.40;27.25;;;5.40;99.90;;;;;;5069482;28;20472;-49
2022/03/17 03:38:09;;;;;;;49.13;29.60;;;5.40;99.90;;;;;;5069802;28;20085;-49
2022/03/17 03:40:34;;;;;;;41.60;26.75;;;5.40;99.90;;;;;;5069517;28;20040;-50
2022/03/17 03:43:00;;;;;;;40.45;26.38;;;5.40;99.90;;;;;;5069531;28;20029;-49
2022/03/17 03:45:26;;;;;;;43.40;28.27;;;5.40;99.90;;;;;;5069805;28;20017;-52
2022/03/17 03:47:52;;;;;;;46.40;28.50;;;5.40;99.90;;;;;;5069378;28;20046;-48
2022/03/17 03:50:17;;;;;;;43.25;28.90;;;5.50;99.90;;;;;;5069684;28;20383;-52
2022/03/17 03:52:43;;;;;;;48.13;29.00;;;5.50;99.90;;;;;;5068923;28;20024;-49
2022/03/17 03:55:09;;;;;;;44.72;28.00;;;5.50;99.90;;;;;;5069023;28;20500;-51
2022/03/17 03:57:35;;;;;;;41.40;28.60;;;5.50;99.90;;;;;;5069362;28;20029;-52
2022/03/17 04:00:01;;;;;;;48.95;30.70;;;5.50;99.90;;;;;;5051072;28;20040;-50
2022/03/17 04:02:27;;;;;;;44.45;27.38;;;5.50;99.90;;;;;;5068673;28;20024;-50
2022/03/17 04:04:52;;;;;;;42.70;29.00;;;5.50;99.90;;;;;;5069204;28;20032;-49
2022/03/17 04:07:18;;;;;;;43.47;27.15;;;5.60;99.90;;;;;;5068859;28;20026;-48
2022/03/17 04:09:43;;;;;;;45.33;28.90;;;5.60;99.90;;;;;;5068517;28;20029;-49
2022/03/17 04:12:13;;;;;;;44.65;27.88;;;5.60;99.90;;;;;;5052021;28;20550;-53
2022/03/17 04:14:39;;;;;;;44.38;29.52;;;5.70;99.90;;;;;;5069804;28;20492;-51
2022/03/17 04:17:05;;;;;;;45.53;28.83;;;5.70;99.90;;;;;;5069227;28;20407;-50
2022/03/17 04:19:30;;;;;;;41.38;28.67;;;5.70;99.90;;;;;;5069455;28;20115;-52
2022/03/17 04:21:56;;;;;;;41.30;27.92;;;5.80;99.90;;;;;;5069001;28;20029;-51
2022/03/17 04:24:22;;;;;;;46.33;27.02;;;5.80;99.90;;;;;;5068534;28;20043;-49
2022/03/17 04:26:48;;;;;;;46.47;29.90;;;5.70;99.90;;;;;;5069153;28;20392;-50
2022/03/17 04:29:14;;;;;;;47.30;29.85;;;5.80;99.90;;;;;;5069088;28;20081;-51
2022/03/17 04:31:41;;;;;;;41.85;26.83;;;5.80;99.90;;;;;;5068697;28;20016;-49
2022/03/17 04:34:08;;;;;;;44.00;29.27;;;5.80;99.90;;;;;;5069050;28;20036;-49
2022/03/17 04:36:34;;;;;;;45.15;28.02;;;5.80;99.90;;;;;;5067749;28;20047;-52
2022/03/17 04:39:00;;;;;;;40.90;28.35;;;5.80;99.90;;;;;;5068933;28;20048;-52
2022/03/17 04:41:26;;;;;;;42.72;27.55;;;5.80;99.90;;;;;;5068332;28;20097;-52
2022/03/17 04:43:51;;;;;;;44.38;28.77;;;5.80;99.90;;;;;;5050513;28;20067;-50
2022/03/17 04:46:17;;;;;;;42.97;28.52;;;5.90;99.90;;;;;;5068474;28;20027;-49
2022/03/17 04:48:43;;;;;;;47.92;30.00;;;5.90;99.90;;;;;;5068876;28;20211;-51
2022/03/17 04:51:09;;;;;;;40.05;28.73;;;5.90;99.90;;;;;;5068655;28;20036;-49
2022/03/17 04:53:35;;;;;;;43.22;28.52;;;5.90;99.90;;;;;;5050759;28;20025;-49
2022/03/17 04:56:01;;;;;;;44.10;29.17;;;5.90;99.90;;;;;;5069014;28;20029;-52
2022/03/17 04:58:28;;;;;;;43.47;27.58;;;5.90;99.90;;;;;;5069114;28;20443;-51
2022/03/17 05:00:55;;;;;;;44.42;30.50;;;6.00;99.90;;;;;;5068890;28;20035;-48
2022/03/17 05:03:21;;;;;;;48.42;30.13;;;6.00;99.90;;;;;;5068391;28;20546;-51
2022/03/17 05:05:48;;;;;;;42.90;29.73;;;5.90;99.90;;;;;;5068431;28;20047;-52
2022/03/17 05:08:14;;;;;;;44.20;29.55;;;5.90;99.90;;;;;;5050461;28;20755;-48
2022/03/17 05:10:40;;;;;;;43.10;28.23;;;6.00;99.90;;;;;;5034218;28;20103;-49
2022/03/17 05:13:07;;;;;;;48.47;30.17;;;6.00;99.90;;;;;;5067739;28;20477;-48
2022/03/17 05:15:34;;;;;;;43.13;29.60;;;6.00;99.90;;;;;;5068114;28;20021;-49
2022/03/17 05:18:00;;;;;;;45.47;29.27;;;6.00;99.90;;;;;;5067889;28;20032;-48
2022/03/17 05:20:25;;;;;;;43.75;28.35;;;6.00;99.90;;;;;;5070152;28;20025;-52
2022/03/17 05:22:52;;;;;;;44.63;30.20;;;6.00;99.90;;;;;;5070401;28;20029;-50
2022/03/17 05:25:18;;;;;;;43.60;29.33;;;6.10;99.90;;;;;;5072314;28;20488;-53
2022/03/17 05:27:47;;;;;;;47.55;30.55;;;6.10;99.90;;;;;;5072003;28;20032;-51
2022/03/17 05:30:14;;;;;;;42.33;28.25;;;6.10;99.90;;;;;;5072491;28;20050;-51
2022/03/17 05:32:41;;;;;;;44.78;29.17;;;6.00;99.90;;;;;;5071113;28;20032;-49
2022/03/17 05:35:08;;;;;;;42.45;28.38;;;6.00;99.90;;;;;;5072029;28;20039;-49
2022/03/17 05:37:35;;;;;;;48.95;29.65;;;6.00;99.90;;;;;;5054442;28;20039;-49
2022/03/17 05:40:02;;;;;;;44.78;29.35;;;6.00;99.90;;;;;;5072077;28;20394;-50
2022/03/17 05:42:28;;;;;;;47.97;28.80;;;6.00;99.90;;;;;;5071161;28;20032;-48
2022/03/17 05:44:54;;;;;;;42.78;28.70;;;6.00;99.90;;;;;;5071815;28;20020;-51
2022/03/17 05:47:20;;;;;;;46.85;29.45;;;6.00;99.90;;;;;;5071756;28;20044;-48
2022/03/17 05:49:49;;;;;;;43.90;30.00;;;6.00;99.90;;;;;;5053645;28;20032;-51
2022/03/17 05:52:15;;;;;;;43.45;29.70;;;6.00;99.90;;;;;;5053697;28;20039;-48
2022/03/17 05:54:41;;;;;;;46.55;29.23;;;6.00;99.90;;;;;;5071873;28;20130;-48
2022/03/17 05:57:06;;;;;;;43.88;29.45;;;6.00;99.90;;;;;;5071508;28;20032;-48
2022/03/17 05:59:32;;;;;;;45.08;30.58;;;6.00;99.90;;;;;;5071629;28;20032;-51
2022/03/17 06:01:58;;;;;;;45.63;29.45;;;6.10;99.90;;;;;;5053416;28;20087;-52
2022/03/17 06:04:24;;;;;;;43.03;28.45;;;6.10;99.90;;;;;;5071388;28;20017;-48
2022/03/17 06:06:50;;;;;;;42.08;27.60;;;6.10;99.90;;;;;;5071148;28;20038;-50
2022/03/17 06:09:15;;;;;;;46.80;29.65;;;6.10;99.90;;;;;;5071221;28;20031;-49
2022/03/17 06:11:41;;;;;;;41.85;27.83;;;6.10;99.90;;;;;;5071312;28;20028;-51
2022/03/17 06:14:07;;;;;;;43.60;27.85;;;6.10;99.90;;;;;;5070728;28;20073;-50
2022/03/17 06:16:33;;;;;;;41.47;27.98;;;6.10;99.90;;;;;;5072169;28;20465;-52
2022/03/17 06:18:58;;;;;;;43.05;28.33;;;6.10;99.90;;;;;;5072107;28;20020;-54
2022/03/17 06:21:24;;;;;;;44.95;29.52;;;6.10;99.90;;;;;;5071115;28;20032;-52
2022/03/17 06:23:50;;;;;;;48.78;29.80;;;6.10;99.90;;;;;;5070868;28;20024;-50
2022/03/17 06:26:15;;;;;;;43.17;29.35;;;6.10;99.90;;;;;;5071211;28;20028;-52
2022/03/17 06:28:41;;;;;;;48.85;30.75;;;6.10;99.90;;;;;;5071070;28;20036;-48
2022/03/17 06:31:07;;;;;;;43.33;29.55;;;6.10;99.90;;;;;;5069223;28;20021;-51
2022/03/17 06:33:32;;;;;;;40.88;28.40;;;6.10;99.90;;;;;;5070633;28;20028;-49
2022/03/17 06:35:58;;;;;;;39.95;28.85;;;6.20;99.90;;;;;;5070767;28;20029;-52
2022/03/17 06:38:24;;;;;;;45.88;29.58;;;6.10;99.90;;;;;;5071014;28;20487;-49
2022/03/17 06:40:51;;;;;;;43.95;28.58;;;6.10;99.90;;;;;;5070677;28;20032;-51
2022/03/17 06:43:17;;;;;;;44.20;30.52;;;6.20;99.90;;;;;;5070553;28;20048;-49
2022/03/17 06:45:44;;;;;;;43.83;29.10;;;6.20;99.90;;;;;;5070552;28;20554;-52
2022/03/17 06:48:10;;;;;;;41.17;28.05;;;6.20;99.90;;;;;;5070725;28;20047;-52
2022/03/17 06:50:36;;;;;;;42.95;29.30;;;6.20;99.90;;;;;;5070801;28;20503;-49
2022/03/17 06:53:02;;;;;;;41.33;28.55;;;6.20;99.90;;;;;;5070276;28;20151;-48
2022/03/17 06:55:27;;;;;;;44.72;29.75;;;6.20;99.90;;;;;;5070959;28;20561;-51
2022/03/17 06:57:53;;;;;;;50.85;31.38;;;6.30;99.90;;;;;;5070215;28;20029;-51
2022/03/17 07:00:19;;;;;;;45.60;28.75;;;6.30;99.90;;;;;;5070832;28;20031;-50
2022/03/17 07:02:46;;;;;;;42.60;28.98;;;6.30;99.90;;;;;;5070025;28;20048;-51
2022/03/17 07:05:12;;;;;;;43.63;28.50;;;6.30;99.90;;;;;;5052576;28;20025;-50
2022/03/17 07:07:38;;;;;;;46.53;29.50;;;6.30;99.90;;;;;;5070036;28;20027;-48
2022/03/17 07:10:06;;;;;;;43.28;30.23;;;6.30;99.90;;;;;;5070684;28;20028;-50
2022/03/17 07:12:32;;;;;;;42.75;28.92;;;6.30;99.90;;;;;;5069516;28;20032;-50
2022/03/17 07:14:58;;;;;;;48.25;31.17;;;6.40;99.90;;;;;;5052679;28;20112;-51
2022/03/17 07:17:24;;;;;;;45.83;29.77;;;6.40;99.90;;;;;;5070095;28;20151;-50
2022/03/17 07:19:59;;;;;;;46.92;30.65;;;6.40;99.90;;;;;;5069730;28;20028;-50
2022/03/17 07:22:25;;;;;;;44.90;29.30;;;6.50;99.90;;;;;;5068665;28;20016;-51
2022/03/17 07:24:53;;;;;;;47.28;31.67;;;6.50;99.90;;;;;;5069766;28;20028;-51
2022/03/17 07:27:21;;;;;;;41.60;30.38;;;6.60;99.90;;;;;;5068489;28;20056;-50
2022/03/17 07:29:47;;;;;;;45.42;30.90;;;6.60;99.90;;;;;;5070217;28;20025;-48
2022/03/17 07:32:13;;;;;;;42.40;29.67;;;6.60;99.90;;;;;;5070038;28;20039;-50
2022/03/17 07:34:38;;;;;;;44.70;30.83;;;6.70;99.90;;;;;;5052522;28;20025;-49
2022/03/17 07:37:04;;;;;;;46.70;32.08;;;6.70;99.90;;;;;;5069980;28;20388;-49
2022/03/17 07:39:29;;;;;;;46.28;30.80;;;6.70;99.90;;;;;;5070031;28;20118;-50
2022/03/17 07:41:55;;;;;;;45.25;29.60;;;6.70;99.90;;;;;;5069756;28;20013;-49
2022/03/17 07:44:21;;;;;;;42.40;29.60;;;6.70;99.90;;;;;;5069763;28;20450;-49
2022/03/17 07:46:48;;;;;;;45.05;32.03;;;6.80;99.90;;;;;;5069891;28;20031;-48
2022/03/17 07:49:14;;;;;;;43.25;29.83;;;6.80;99.90;;;;;;5069735;28;20133;-49
2022/03/17 07:51:40;;;;;;;42.38;29.13;;;6.80;99.90;;;;;;5068539;28;20020;-48
2022/03/17 07:54:07;;;;;;;47.70;32.17;;;6.80;99.90;;;;;;5069583;28;20028;-48
2022/03/17 07:56:33;;;;;;;45.45;31.48;;;6.80;99.90;;;;;;5069560;28;20042;-51
2022/03/17 07:58:59;;;;;;;44.47;30.00;;;6.90;99.90;;;;;;5069420;28;20090;-48
2022/03/17 08:01:26;;;;;;;46.63;30.48;;;6.90;99.90;;;;;;5069630;28;20633;-51
2022/03/17 08:03:54;;;;;;;46.80;31.10;;;6.90;99.90;;;;;;5069037;28;20055;-48
2022/03/17 08:06:22;;;;;;;42.90;30.40;;;7.00;99.90;;;;;;5051861;28;20021;-48
2022/03/17 08:08:47;;;;;;;44.95;30.75;;;7.00;99.90;;;;;;5069145;28;20127;-47
2022/03/17 08:11:13;;;;;;;43.25;30.75;;;7.10;99.90;;;;;;5068994;28;20099;-49
2022/03/17 08:13:39;;;;;;;45.47;30.23;;;7.10;99.90;;;;;;5068856;28;20036;-50
2022/03/17 08:16:06;;;;;;;42.22;30.38;;;7.10;99.90;;;;;;5069379;28;20468;-51
2022/03/17 08:18:32;;;;;;;45.33;32.20;;;7.20;99.90;;;;;;5069264;28;20407;-48
2022/03/17 08:20:58;;;;;;;48.97;31.30;;;7.20;99.90;;;;;;5069352;28;20021;-54
2022/03/17 08:23:23;;;;;;;42.13;30.48;;;7.20;99.90;;;;;;5070208;28;20207;-55
2022/03/17 08:25:49;;;;;;;45.42;30.63;;;7.20;99.90;;;;;;5069386;28;20029;-50
2022/03/17 08:28:17;;;;;;;51.60;30.98;;;7.20;99.90;;;;;;5068993;28;20318;-50
2022/03/17 08:30:43;;;;;;;45.53;31.38;;;7.20;99.90;;;;;;5069249;28;20012;-52
2022/03/17 08:33:08;;;;;;;40.80;29.80;;;7.20;99.90;;;;;;5068658;28;20550;-50
2022/03/17 08:35:34;;;;;;;47.38;30.60;;;7.20;99.90;;;;;;5068390;28;20056;-48
2022/03/17 08:37:59;;;;;;;42.90;30.15;;;7.20;99.90;;;;;;5068399;28;20033;-50
2022/03/17 08:40:25;;;;;;;44.05;29.55;;;7.20;99.90;;;;;;5069109;28;20412;-50
2022/03/17 08:42:50;;;;;;;41.28;29.15;;;7.20;99.90;;;;;;5068328;28;20032;-48
2022/03/17 08:50:47;;;;;;;42.30;28.88;;;7.30;99.90;;;;;;5069497;28;20081;-48
2022/03/17 08:53:13;;;;;;;45.22;31.13;;;7.30;99.90;;;;;;5068251;28;20532;-49
2022/03/17 08:55:39;;;;;;;42.80;31.30;;;7.30;99.90;;;;;;5071747;28;20024;-48
2022/03/17 08:58:06;;;;;;;41.20;28.92;;;7.30;99.90;;;;;;5072691;28;20103;-50
2022/03/17 09:00:34;;;;;;;40.58;29.52;;;7.30;99.90;;;;;;5072704;28;20112;-51
2022/03/17 09:03:05;;;;;;;45.03;30.58;;;7.30;99.90;;;;;;5072505;28;20031;-49
2022/03/17 09:05:33;;;;;;;43.72;30.35;;;7.30;99.90;;;;;;5072830;28;20052;-51
2022/03/17 09:08:00;;;;;;;43.75;30.58;;;7.30;99.90;;;;;;5072854;28;20036;-49
2022/03/17 09:10:26;;;;;;;45.97;32.17;;;7.30;99.90;;;;;;5072460;28;20109;-50
2022/03/17 09:12:57;;;;;;;45.35;32.40;;;7.20;99.90;;;;;;5072684;28;20035;-50
2022/03/17 09:15:24;;;;;;;42.38;30.55;;;7.20;99.90;;;;;;5072679;28;20043;-52
2022/03/17 09:17:50;;;;;;;41.55;30.90;;;7.10;99.90;;;;;;5072809;28;20058;-51
2022/03/17 09:20:16;;;;;;;45.60;30.58;;;7.10;99.90;;;;;;5072083;28;20102;-49
2022/03/17 09:22:43;;;;;;;44.63;32.53;;;7.10;99.90;;;;;;5072014;28;20112;-50
2022/03/17 09:25:09;;;;;;;43.83;31.88;;;7.00;99.90;;;;;;5072894;28;20025;-51
2022/03/17 09:27:35;;;;;;;44.20;32.38;;;7.00;99.90;;;;;;5072478;28;20463;-48
2022/03/17 09:30:01;;;;;;;43.60;30.70;;;7.00;99.90;;;;;;5072910;28;20064;-48
2022/03/17 09:32:26;;;;;;;48.25;33.15;;;7.00;99.90;;;;;;5071585;28;20039;-53
2022/03/17 09:34:52;;;;;;;50.38;33.78;;;7.00;99.90;;;;;;5072126;28;20067;-50
2022/03/17 09:37:18;;;;;;;54.03;34.25;;;7.00;99.90;;;;;;5072401;28;20032;-53
2022/03/17 09:39:45;;;;;;;47.90;32.88;;;7.00;99.90;;;;;;5071419;28;20032;-50
2022/03/17 09:42:15;;;;;;;49.50;34.35;;;6.90;99.90;;;;;;5072086;28;20074;-53
2022/03/17 09:44:42;;;;;;;45.00;31.92;;;6.90;99.90;;;;;;5072221;28;20098;-55
2022/03/17 09:47:09;;;;;;;49.58;33.78;;;6.80;99.90;;;;;;5072081;28;20020;-52
2022/03/17 09:49:37;;;;;;;48.17;33.78;;;6.80;99.90;;;;;;5053788;28;20044;-50
2022/03/17 09:52:13;;;;;;;46.08;33.05;;;6.90;99.90;;;;;;5071288;28;20044;-52
2022/03/17 09:54:42;;;;;;;48.38;34.38;;;6.90;99.90;;;;;;5072081;28;20102;-51
2022/03/17 09:57:08;;;;;;;46.10;33.53;;;6.90;99.90;;;;;;5071766;28;20032;-56
2022/03/17 09:59:34;;;;;;;48.05;34.00;;;6.80;99.90;;;;;;5071575;28;20571;-53
2022/03/17 10:02:01;;;;;;;48.40;35.35;;;6.90;99.90;;;;;;5053383;28;20028;-56
2022/03/17 10:04:35;;;;;;;47.70;34.30;;;6.90;99.90;;;;;;5108228;22;20129;-51
2022/03/17 10:07:01;;;;;;;50.25;34.70;;;6.90;99.90;;;;;;5091895;28;20028;-52
2022/03/17 10:09:30;;;;;;;51.72;35.45;;;6.90;99.90;;;;;;5091447;28;20023;-50
2022/03/17 10:12:01;;;;;;;51.08;35.40;;;6.90;99.90;;;;;;5080290;28;20032;-51
2022/03/17 10:14:37;;;;;;;52.70;36.13;;;6.90;99.90;;;;;;5070723;28;20094;-52
2022/03/17 10:17:33;;;;;;;52.08;35.08;;;6.90;99.90;;;;;;5086279;28;20526;-51
2022/03/17 10:20:14;;;;;;;51.15;33.58;;;6.90;99.90;;;;;;5089894;28;20448;-51
2022/03/17 10:22:49;;;;;;;52.70;35.10;;;6.90;99.90;;;;;;5091883;28;20024;-51
2022/03/17 10:25:20;;;;;;;50.93;34.67;;;7.00;99.90;;;;;;5091506;28;20035;-51
2022/03/17 10:27:46;;;;;;;48.85;34.67;;;7.00;99.90;;;;;;5091013;28;20035;-55
2022/03/17 10:30:13;;;;;;;53.88;36.45;;;7.00;99.90;;;;;;5072905;28;20032;-50
2022/03/17 10:32:39;;;;;;;50.85;34.90;;;7.00;99.90;;;;;;5072442;28;20020;-50
2022/03/17 10:35:08;;;;;;;53.80;35.08;;;7.00;99.90;;;;;;5088935;28;20067;-51
2022/03/17 10:37:36;;;;;;;48.30;33.60;;;7.00;99.90;;;;;;5091231;28;20028;-53
2022/03/17 10:40:08;;;;;;;51.30;34.33;;;7.00;99.90;;;;;;5091375;28;20032;-52
2022/03/17 10:42:34;;;;;;;53.05;36.22;;;7.00;99.90;;;;;;5091243;28;20115;-50
2022/03/17 10:45:05;;;;;;;49.65;35.92;;;7.00;99.90;;;;;;5091537;28;20103;-51
2022/03/17 10:47:36;;;;;;;45.97;34.20;;;7.00;99.90;;;;;;5091176;28;20434;-51
2022/03/17 10:50:04;;;;;;;49.38;35.60;;;7.00;99.90;;;;;;5091075;28;20050;-50
2022/03/17 10:52:43;;;;;;;50.25;34.75;;;7.00;99.90;;;;;;5090506;28;20028;-50
2022/03/17 10:55:09;;;;;;;46.80;33.70;;;7.00;99.90;;;;;;5091043;28;20044;-51
2022/03/17 10:57:35;;;;;;;46.28;33.80;;;7.10;99.90;;;;;;5091063;28;20144;-49
2022/03/17 11:00:02;;;;;;;48.33;32.97;;;7.10;99.90;;;;;;5090915;28;20489;-50
2022/03/17 11:02:28;;;;;;;46.47;32.22;;;7.10;99.90;;;;;;5090208;28;20035;-51
2022/03/17 11:04:55;;;;;;;49.78;33.05;;;7.10;99.90;;;;;;5090629;28;20395;-52
2022/03/17 11:07:21;;;;;;;41.53;30.98;;;7.10;99.90;;;;;;5090985;28;20122;-50
2022/03/17 11:09:47;;;;;;;41.53;28.88;;;7.20;99.90;;;;;;5090215;28;20305;-49
2022/03/17 11:12:17;;;;;;;38.70;27.23;;;7.20;99.90;;;;;;5090594;28;20169;-50
2022/03/17 11:14:45;;;;;;;37.78;25.42;;;7.20;99.90;;;;;;5089717;28;20020;-51
2022/03/17 11:17:14;;;;;;;36.42;26.65;;;7.20;99.90;;;;;;5090383;28;20032;-51
2022/03/17 11:19:44;;;;;;;36.58;25.52;;;7.20;99.90;;;;;;5090696;28;20062;-50
2022/03/17 11:22:15;;;;;;;31.45;22.42;;;7.20;99.90;;;;;;5090636;28;20387;-52
2022/03/17 11:24:41;;;;;;;25.92;16.58;;;7.20;99.90;;;;;;5090840;28;20016;-51
2022/03/17 11:27:12;;;;;;;24.67;15.90;;;7.20;99.90;;;;;;5090971;28;20265;-52
2022/03/17 11:29:45;;;;;;;18.63;14.25;;;7.20;99.90;;;;;;5090420;28;20103;-51
2022/03/17 11:32:31;;;;;;;26.95;14.05;;;7.10;99.90;;;;;;5090231;28;20024;-51
2022/03/17 11:35:10;;;;;;;20.37;12.07;;;7.10;99.90;;;;;;5090034;28;20511;-51
2022/03/17 11:37:36;;;;;;;16.83;10.55;;;7.10;99.90;;;;;;5090586;28;20058;-49
2022/03/17 11:40:13;;;;;;;18.08;9.27;;;7.10;99.90;;;;;;5090184;28;20108;-51
2022/03/17 11:42:52;;;;;;;12.02;8.50;;;7.10;99.90;;;;;;5090258;28;20043;-50
2022/03/17 11:45:18;;;;;;;10.77;7.50;;;7.10;99.90;;;;;;5090142;28;20054;-51
2022/03/17 11:47:55;;;;;;;17.90;7.80;;;7.10;99.90;;;;;;5090342;28;20077;-53
2022/03/17 11:50:34;;;;;;;10.93;7.63;;;7.00;99.90;;;;;;5090075;28;20422;-51
2022/03/17 11:53:05;;;;;;;10.38;6.40;;;7.10;99.90;;;;;;5089743;28;20024;-51
2022/03/17 11:55:36;;;;;;;11.23;5.88;;;7.10;99.90;;;;;;5089869;28;20436;-50
2022/03/17 11:58:47;;;;;;;12.30;7.57;;;7.10;99.90;;;;;;5089990;28;20028;-51
2022/03/17 12:01:23;;;;;;;10.63;4.70;;;7.10;99.90;;;;;;5089907;28;20023;-51
2022/03/17 12:03:55;;;;;;;11.10;6.38;;;7.10;99.90;;;;;;5089800;28;20023;-54
2022/03/17 12:06:23;;;;;;;14.63;5.40;;;7.20;99.90;;;;;;5090176;28;20048;-51
2022/03/17 12:09:01;;;;;;;9.95;4.40;;;7.20;99.90;;;;;;5089294;28;20089;-51
2022/03/17 12:11:56;;;;;;;9.70;4.78;;;7.20;99.90;;;;;;5089959;28;20024;-51
2022/03/17 12:14:27;;;;;;;9.85;4.07;;;7.20;99.90;;;;;;5076010;28;20043;-50
2022/03/17 12:16:54;;;;;;;5.75;2.90;;;7.30;99.90;;;;;;5089544;28;20020;-52
2022/03/17 12:19:30;;;;;;;8.07;3.47;;;7.30;99.90;;;;;;5089047;28;20028;-51
2022/03/17 12:22:01;;;;;;;;;;;7.30;99.90;;;;;;5089414;28;20020;-55
2022/03/17 12:24:40;;;;;;;10.45;2.70;;;7.30;99.90;;;;;;5084477;28;20507;-53
2022/03/17 12:27:09;;;;;;;8.30;2.95;;;7.40;99.90;;;;;;5089290;28;20535;-52
2022/03/17 12:29:34;;;;;;;9.13;2.97;;;7.50;99.90;;;;;;5088652;28;20035;-52
2022/03/17 12:32:05;;;;;;;10.27;2.50;;;7.60;99.90;;;;;;5085578;28;20034;-53
2022/03/17 12:34:31;;;;;;;4.93;1.88;;;7.60;99.90;;;;;;5086390;28;20027;-53
2022/03/17 12:37:01;;;;;;;11.02;2.83;;;7.60;99.90;;;;;;5088747;28;20514;-51
2022/03/17 12:39:28;;;;;;;7.10;2.30;;;7.60;99.90;;;;;;5086395;28;20028;-52
2022/03/17 12:41:55;;;;;;;9.68;1.65;;;7.60;99.90;;;;;;5089271;28;20033;-53
2022/03/17 12:44:25;;;;;;;9.40;2.05;;;7.60;99.90;;;;;;5089102;28;20028;-55
2022/03/17 12:46:52;;;;;;;10.43;2.22;;;7.50;99.90;;;;;;5088978;28;20462;-53
2022/03/17 12:49:19;;;;;;;7.60;2.15;;;7.50;99.90;;;;;;5087546;28;20085;-52
2022/03/17 12:51:45;;;;;;;6.00;1.50;;;7.50;99.90;;;;;;5084149;28;20020;-52
2022/03/17 12:54:15;;;;;;;7.20;1.90;;;7.50;99.90;;;;;;5088856;28;20093;-54
2022/03/17 12:56:51;;;;;;;4.65;1.38;;;7.50;99.90;;;;;;5088889;28;20020;-51